Biggsville, IL

9:01 PM CST on December 10, 2019 (GMT -0600)
AFFarms.com in Field | | Change Station

Elev 682 ft 40.81 °N, 90.77 °W | Updated 14 seconds ago

Partly Cloudy
Partly Cloudy
18.9 °F
Feels Like 19 °F
N
0.9
Wind Variable Wind from WSW
Gusts 1.1 mph

Today
High -- | Low -- °F
--% Chance of Precip.
Yesterday
High -- | Low -- °F
Precip. -- in
Pressure 30.40 in
Visibility 10.0 miles
Clouds Overcast 3000 ft
Windchill 19 °F
Dew Point 14 °F
Humidity 83%
Rainfall 0.00 in
Snow Depth Not available.
7:16 AM 4:35 PM
Waxing Gibbous, 99% visible
METAR KBRL 110253Z AUTO 29007KT 10SM OVC030 M06/M12 A3036 RMK AO2 SLP292 T10611117 51002
Pressure 30.40 in
Visibility 10.0 miles
Clouds Overcast 3000 ft
Windchill 19 °F
Dew Point 14 °F
Humidity 83%
Rainfall 0.00 in
Snow Depth Not available.
7:16 AM 4:35 PM
Waxing Gibbous, 99% visible
METAR KBRL 110253Z AUTO 29007KT 10SM OVC030 M06/M12 A3036 RMK AO2 SLP292 T10611117 51002

Get Severe Weather Alerts

Thanks for signing up!

Be on the lookout for a verification email in your inbox.

You'll start receiving the daily forecast at 6 AM.

×

10-Day Weather Forecast

Almanac

Astronomy

Dec. 10, 2019 Rise Set
Actual Time
Civil Twilight
Nautical Twilight
Astronomical Twilight
Moon
Length of Visible Light
Length of Day
Tomorrow will be .
, % of the Moon is Illuminated

Today's Extremes

State Highs State Lows

Community

WunderPhotos

Category 6

Welcome to Category 6. This is the collective home for Weather Underground's featured writeups by Dr. Jeff Masters (right), Bob Henson (left), Chris Burt, and other regular contributors.

Nearby

Air Quality

  Air Quality AQ Index Pollutant
Not available.

Snow Depth

Station Depth Elevation

Earthquake Activity

City Distance Mag. Time & Date
Minimum magnitude displayed is 2.5.

Coastal Water Temperatures

Place Temperature

Stations

Nearby Weather Stations

Station Location Temp. Windchill Dew Point Humidity Wind Precip. Elev Updated Type
                   

Watches & Warnings

There are currently no watches in effect.